createdAt,value
2018-12-27T00:02:05.566Z,95370.05
2018-12-27T00:04:36.092Z,95382.61
2018-12-27T00:07:06.631Z,95403.66
2018-12-27T00:09:37.028Z,95392.41
2018-12-27T00:12:07.311Z,95386.78
2018-12-27T00:14:37.926Z,95391.54
2018-12-27T00:17:08.629Z,95390.76
2018-12-27T00:19:38.900Z,95392.55
2018-12-27T00:22:09.860Z,95395.66
2018-12-27T00:24:40.543Z,95404.26
2018-12-27T00:27:11.148Z,95400.88
2018-12-27T00:29:41.786Z,95381.14
2018-12-27T00:32:12.514Z,95393.89
2018-12-27T00:34:42.901Z,95396.45
2018-12-27T00:37:13.707Z,95385.19
2018-12-27T00:39:44.188Z,95378.43
2018-12-27T00:42:14.664Z,95397.72
2018-12-27T00:44:45.338Z,95403.32
2018-12-27T00:47:16.123Z,95399.94
2018-12-27T00:49:46.831Z,95398.53
2018-12-27T00:52:17.688Z,95393.84
2018-12-27T00:54:48.200Z,95398.17
2018-12-27T00:57:19.774Z,95401.22
2018-12-27T00:59:50.472Z,95396.45
2018-12-27T01:02:21.235Z,95403.02
2018-12-27T01:04:51.737Z,95404.45
2018-12-27T01:07:22.400Z,95404.96
2018-12-27T01:09:52.810Z,95400.70
2018-12-27T01:12:23.553Z,95386.15
2018-12-27T01:14:54.279Z,95423.55
2018-12-27T01:17:24.928Z,95402.34
2018-12-27T01:19:55.342Z,95411.55
2018-12-27T01:22:26.343Z,95406.98
2018-12-27T01:24:57.066Z,95404.84
2018-12-27T01:27:27.751Z,95409.73
2018-12-27T01:29:58.461Z,95396.89
2018-12-27T01:32:29.370Z,95394.97
2018-12-27T01:34:59.761Z,95372.55
2018-12-27T01:37:30.456Z,95382.19
2018-12-27T01:40:00.957Z,95383.84
2018-12-27T01:42:31.646Z,95377.65
2018-12-27T01:45:02.046Z,95383.72
2018-12-27T01:47:33.008Z,95370.33
2018-12-27T01:50:03.730Z,95381.15
2018-12-27T01:52:35.659Z,95374.35
2018-12-27T01:55:06.132Z,95378.03
2018-12-27T01:57:36.872Z,95371.14
2018-12-27T02:00:07.673Z,95365.66
2018-12-27T02:02:38.132Z,95385.84
2018-12-27T02:05:08.553Z,95366.68
2018-12-27T02:07:39.576Z,95344.80
2018-12-27T02:10:09.961Z,95364.39
2018-12-27T02:12:40.785Z,95371.20
2018-12-27T02:15:11.588Z,95367.78
2018-12-27T02:17:42.274Z,95370.39
2018-12-27T02:20:12.912Z,95370.59
2018-12-27T02:22:43.495Z,95362.52
2018-12-27T02:25:13.920Z,95362.45
2018-12-27T02:27:45.009Z,95361.30
2018-12-27T02:30:15.619Z,95365.03
2018-12-27T02:32:46.334Z,95358.09
2018-12-27T02:35:16.830Z,95352.41
2018-12-27T02:37:47.606Z,95353.33
2018-12-27T02:40:18.029Z,95348.97
2018-12-27T02:42:48.988Z,95346.70
2018-12-27T02:45:19.688Z,95341.75
2018-12-27T02:47:50.105Z,95339.66
2018-12-27T02:50:20.751Z,95338.75
2018-12-27T02:52:51.373Z,95327.31
2018-12-27T02:55:22.004Z,95325.95
2018-12-27T02:57:52.826Z,95331.36
2018-12-27T03:00:23.205Z,95332.59
2018-12-27T03:02:53.949Z,95334.39
2018-12-27T03:05:25.390Z,95337.79
2018-12-27T03:07:55.957Z,95338.91
2018-12-27T03:10:26.626Z,95336.19
2018-12-27T03:12:57.428Z,95332.94
2018-12-27T03:15:27.914Z,95326.22
2018-12-27T03:17:58.740Z,95330.56
2018-12-27T03:20:29.519Z,95337.42
2018-12-27T03:23:00.207Z,95335.87
2018-12-27T03:25:30.910Z,95348.20
2018-12-27T03:28:01.688Z,95339.80
2018-12-27T03:30:32.417Z,95342.24
2018-12-27T03:33:03.425Z,95350.16
2018-12-27T03:35:33.813Z,95345.17
2018-12-27T03:38:04.328Z,95350.36
2018-12-27T03:40:35.032Z,95340.09
2018-12-27T03:43:05.891Z,95360.94
2018-12-27T03:45:36.301Z,95363.05
2018-12-27T03:48:06.966Z,95362.89
2018-12-27T03:50:37.440Z,95357.59
2018-12-27T03:53:08.201Z,95364.34
2018-12-27T03:55:38.917Z,95364.14
2018-12-27T03:58:09.800Z,95378.09
2018-12-27T04:00:40.515Z,95377.97
2018-12-27T04:03:11.173Z,95372.69
2018-12-27T04:05:41.663Z,95379.59
2018-12-27T04:08:12.173Z,95389.55
2018-12-27T04:10:42.589Z,95386.08
2018-12-27T04:13:13.285Z,95396.16
2018-12-27T04:15:43.952Z,95393.12
2018-12-27T04:18:14.499Z,95405.34
2018-12-27T04:20:44.781Z,95408.06
2018-12-27T04:23:15.659Z,95410.75
2018-12-27T04:25:46.462Z,95403.67
2018-12-27T04:28:17.267Z,95403.08
2018-12-27T04:30:47.555Z,95420.75
2018-12-27T04:33:19.951Z,95414.47
2018-12-27T04:35:51.497Z,95417.55
2018-12-27T04:38:21.846Z,95424.45
2018-12-27T04:40:52.217Z,95419.48
2018-12-27T04:43:23.646Z,95427.70
2018-12-27T04:45:54.282Z,95445.19
2018-12-27T04:48:24.880Z,95421.11
2018-12-27T04:50:55.662Z,95440.70
2018-12-27T04:53:26.663Z,95443.73
2018-12-27T04:55:57.441Z,95436.52
2018-12-27T04:58:28.094Z,95446.46
2018-12-27T05:00:58.561Z,95457.08
2018-12-27T05:03:29.187Z,95439.73
2018-12-27T05:05:59.533Z,95456.43
2018-12-27T05:08:30.054Z,95470.41
2018-12-27T05:11:00.653Z,95458.84
2018-12-27T05:13:31.298Z,95467.99
2018-12-27T05:16:01.562Z,95474.27
2018-12-27T05:18:32.182Z,95479.58
2018-12-27T05:21:03.046Z,95481.97
2018-12-27T05:23:33.364Z,95478.77
2018-12-27T05:26:03.658Z,95480.53
2018-12-27T05:28:34.697Z,95485.20
2018-12-27T05:31:04.962Z,95500.73
2018-12-27T05:33:35.570Z,95492.38
2018-12-27T05:36:06.118Z,95504.26
2018-12-27T05:38:37.000Z,95495.56
2018-12-27T05:41:07.271Z,95499.62
2018-12-27T05:43:38.175Z,95511.96
2018-12-27T05:46:08.853Z,95517.77
2018-12-27T05:48:39.162Z,95506.17
2018-12-27T05:51:09.817Z,95510.05
2018-12-27T05:53:40.632Z,95515.67
2018-12-27T05:56:10.911Z,95523.08
2018-12-27T05:58:41.334Z,95523.70
2018-12-27T06:01:11.815Z,95523.73
2018-12-27T06:03:42.130Z,95533.05
2018-12-27T06:06:12.472Z,95534.16
2018-12-27T06:08:42.984Z,95528.66
2018-12-27T06:11:13.639Z,95528.52
2018-12-27T06:13:44.297Z,95526.30
2018-12-27T06:16:14.563Z,95532.70
2018-12-27T06:18:45.306Z,95538.16
2018-12-27T06:21:15.839Z,95553.73
2018-12-27T06:23:46.141Z,95537.98
2018-12-27T06:26:16.454Z,95543.41
2018-12-27T06:28:47.272Z,95537.50
2018-12-27T06:31:17.617Z,95547.00
2018-12-27T06:33:48.173Z,95540.41
2018-12-27T06:36:19.336Z,95565.09
2018-12-27T06:38:50.915Z,95536.52
2018-12-27T06:41:21.431Z,95528.03
2018-12-27T06:43:51.958Z,95547.27
2018-12-27T06:46:22.445Z,95534.52
2018-12-27T06:48:53.244Z,95542.31
2018-12-27T06:51:23.576Z,95538.79
2018-12-27T06:53:54.365Z,95547.12
2018-12-27T06:56:25.208Z,95554.64
2018-12-27T06:58:55.894Z,95539.89
2018-12-27T07:01:26.339Z,95438.48
2018-12-27T07:03:56.973Z,95556.59
2018-12-27T07:06:27.405Z,95547.16
2018-12-27T07:08:58.250Z,95556.45
2018-12-27T07:11:28.538Z,95563.63
2018-12-27T07:13:59.083Z,95560.77
2018-12-27T07:16:29.766Z,95573.28
2018-12-27T07:19:00.385Z,95567.19
2018-12-27T07:21:30.726Z,95560.15
2018-12-27T07:24:01.409Z,95553.10
2018-12-27T07:26:32.019Z,95569.80
2018-12-27T07:29:02.700Z,95568.05
2018-12-27T07:31:33.511Z,95560.44
2018-12-27T07:34:03.925Z,95583.98
2018-12-27T07:36:34.507Z,95566.91
2018-12-27T07:39:06.860Z,95569.95
2018-12-27T07:41:37.156Z,95575.23
2018-12-27T07:44:07.771Z,95568.19
2018-12-27T07:46:38.232Z,95581.22
2018-12-27T07:49:08.984Z,95572.99
2018-12-27T07:51:39.656Z,95576.70
2018-12-27T07:54:10.444Z,95582.36
2018-12-27T07:56:40.777Z,95573.80
2018-12-27T07:59:11.291Z,95581.98
2018-12-27T08:01:41.648Z,95592.45
2018-12-27T08:04:12.262Z,95574.46
2018-12-27T08:06:42.617Z,95595.10
2018-12-27T08:09:13.442Z,95589.98
2018-12-27T08:11:43.765Z,95592.69
2018-12-27T08:14:14.387Z,95602.91
2018-12-27T08:16:44.690Z,95597.55
2018-12-27T08:19:15.509Z,95593.14
2018-12-27T08:21:45.908Z,95602.80
2018-12-27T08:24:16.332Z,95603.53
2018-12-27T08:26:46.662Z,95603.75
2018-12-27T08:29:17.787Z,95603.27
2018-12-27T08:31:48.075Z,95601.36
2018-12-27T08:34:18.713Z,95600.20
2018-12-27T08:36:49.290Z,95609.25
2018-12-27T08:39:19.713Z,95609.02
2018-12-27T08:41:50.095Z,95609.52
2018-12-27T08:44:20.928Z,95615.95
2018-12-27T08:46:51.435Z,95605.52
2018-12-27T08:49:22.309Z,95606.83
2018-12-27T08:51:52.711Z,95597.77
2018-12-27T08:54:23.263Z,95608.44
2018-12-27T08:56:53.734Z,95606.34
2018-12-27T08:59:24.149Z,95611.77
2018-12-27T09:01:54.420Z,95608.72
2018-12-27T09:04:25.264Z,95606.00
2018-12-27T09:06:55.796Z,95600.56
2018-12-27T09:09:26.570Z,95587.70
2018-12-27T09:11:57.273Z,95601.81
2018-12-27T09:14:28.018Z,95598.48
2018-12-27T09:16:58.396Z,95597.98
2018-12-27T09:19:28.703Z,95593.66
2018-12-27T09:21:58.992Z,95596.25
2018-12-27T09:24:29.801Z,95594.77
2018-12-27T09:27:00.174Z,95593.95
2018-12-27T09:29:30.724Z,95589.63
2018-12-27T09:32:01.352Z,95603.15
2018-12-27T09:34:32.059Z,95598.00
2018-12-27T09:37:02.345Z,95595.23
2018-12-27T09:39:32.736Z,95579.19
2018-12-27T09:42:03.558Z,95583.85
2018-12-27T09:44:33.985Z,95583.55
2018-12-27T09:47:04.838Z,95577.89
2018-12-27T09:49:35.393Z,95583.52
2018-12-27T09:52:05.974Z,95579.48
2018-12-27T09:54:36.277Z,95589.64
2018-12-27T09:57:06.959Z,95579.52
2018-12-27T09:59:37.808Z,95587.22
2018-12-27T10:02:08.316Z,95573.41
2018-12-27T10:04:40.015Z,95580.63
2018-12-27T10:07:10.951Z,95570.84
2018-12-27T10:09:41.629Z,95582.41
2018-12-27T10:12:12.278Z,95574.86
2018-12-27T10:14:42.990Z,95574.55
2018-12-27T10:17:13.274Z,95565.69
2018-12-27T10:19:44.216Z,95572.44
2018-12-27T10:22:14.697Z,95554.75
2018-12-27T10:24:45.722Z,95561.69
2018-12-27T10:27:16.232Z,95556.70
2018-12-27T10:29:46.999Z,95557.34
2018-12-27T10:32:17.766Z,95547.86
2018-12-27T10:34:48.415Z,95550.11
2018-12-27T10:37:18.693Z,95537.27
2018-12-27T10:39:49.376Z,95531.95
2018-12-27T10:42:19.989Z,95383.19
2018-12-27T10:44:50.642Z,95525.53
2018-12-27T10:47:21.154Z,95515.06
2018-12-27T10:49:51.916Z,95523.25
2018-12-27T10:52:22.187Z,95511.39
2018-12-27T10:54:52.769Z,95512.34
2018-12-27T10:57:23.061Z,95509.45
2018-12-27T10:59:53.817Z,95515.08
2018-12-27T11:02:24.646Z,95508.02
2018-12-27T11:04:55.118Z,95510.41
2018-12-27T11:07:25.603Z,95513.80
2018-12-27T11:09:56.518Z,95523.42
2018-12-27T11:12:26.802Z,95499.66
2018-12-27T11:14:57.372Z,95506.55
2018-12-27T11:17:28.119Z,95506.88
2018-12-27T11:19:58.585Z,95496.73
2018-12-27T11:22:28.861Z,95494.34
2018-12-27T11:24:59.611Z,95498.00
2018-12-27T11:27:30.052Z,95493.85
2018-12-27T11:30:00.981Z,95501.39
2018-12-27T11:32:32.255Z,95501.21
2018-12-27T11:35:02.731Z,95498.64
2018-12-27T11:37:33.384Z,95510.23
2018-12-27T11:40:03.842Z,95501.42
2018-12-27T11:42:34.213Z,95524.23
2018-12-27T11:45:05.166Z,95507.20
2018-12-27T11:47:35.762Z,95513.61
2018-12-27T11:50:06.619Z,95533.72
2018-12-27T11:52:37.294Z,95515.23
2018-12-27T11:55:08.394Z,95519.73
2018-12-27T11:57:38.894Z,95500.74
2018-12-27T12:00:11.188Z,95506.38
2018-12-27T12:02:41.485Z,95512.17
2018-12-27T12:05:12.058Z,95519.73
2018-12-27T12:07:42.769Z,95511.85
2018-12-27T12:10:13.331Z,95514.70
2018-12-27T12:12:43.980Z,95513.25
2018-12-27T12:15:14.732Z,95511.14
2018-12-27T12:17:45.081Z,95517.91
2018-12-27T12:20:16.102Z,95520.02
2018-12-27T12:22:46.548Z,95522.75
2018-12-27T12:25:16.818Z,95518.44
2018-12-27T12:27:48.577Z,95514.25
2018-12-27T12:30:18.871Z,95525.98
2018-12-27T12:32:49.559Z,95521.98
2018-12-27T12:35:20.519Z,95526.13
2018-12-27T12:37:51.307Z,95521.65
2018-12-27T12:40:21.899Z,95521.80
2018-12-27T12:42:52.425Z,95509.41
2018-12-27T12:45:23.100Z,95517.41
2018-12-27T12:47:53.553Z,95514.95
2018-12-27T12:50:24.540Z,95534.80
2018-12-27T12:52:54.924Z,95525.83
2018-12-27T12:55:25.241Z,95520.69
2018-12-27T12:57:55.984Z,95512.31
2018-12-27T13:00:26.597Z,95523.56
2018-12-27T13:02:57.326Z,95529.79
2018-12-27T13:05:28.008Z,95525.02
2018-12-27T13:07:58.415Z,95526.65
2018-12-27T13:10:29.344Z,95528.55
2018-12-27T13:12:59.687Z,95539.52
2018-12-27T13:15:30.290Z,95525.47
2018-12-27T13:18:00.935Z,95523.58
2018-12-27T13:20:31.468Z,95527.53
2018-12-27T13:23:01.836Z,95528.01
2018-12-27T13:25:32.525Z,95525.26
2018-12-27T13:28:03.057Z,95523.72
2018-12-27T13:30:33.375Z,95530.13
2018-12-27T13:33:04.013Z,95530.62
2018-12-27T13:35:34.628Z,95523.03
2018-12-27T13:38:05.402Z,95524.66
2018-12-27T13:40:35.692Z,95527.87
2018-12-27T13:43:06.213Z,95528.04
2018-12-27T13:45:36.972Z,95530.94
2018-12-27T13:48:07.398Z,95528.37
2018-12-27T13:50:37.720Z,95529.19
2018-12-27T13:53:08.405Z,95534.81
2018-12-27T13:55:38.991Z,95540.78
2018-12-27T13:58:09.344Z,95536.13
2018-12-27T14:00:39.897Z,95532.23
2018-12-27T14:03:10.692Z,95527.58
2018-12-27T14:05:41.194Z,95532.38
2018-12-27T14:08:11.533Z,95534.64
2018-12-27T14:10:42.526Z,95532.24
2018-12-27T14:13:12.804Z,95539.66
2018-12-27T14:15:43.256Z,95542.40
2018-12-27T14:18:13.629Z,95532.75
2018-12-27T14:20:44.180Z,95529.22
2018-12-27T14:23:14.503Z,95533.86
2018-12-27T14:25:45.048Z,95536.09
2018-12-27T14:28:16.064Z,95528.08
2018-12-27T14:30:46.347Z,95538.86
2018-12-27T14:33:17.261Z,95542.23
2018-12-27T14:35:47.874Z,95541.73
2018-12-27T14:38:18.624Z,95543.67
2018-12-27T14:40:48.941Z,95548.80
2018-12-27T14:43:19.575Z,95546.08
2018-12-27T14:45:50.233Z,95538.06
2018-12-27T14:48:21.103Z,95552.20
2018-12-27T14:50:51.403Z,95551.25
2018-12-27T14:53:22.395Z,95543.19
2018-12-27T14:55:53.048Z,95544.48
2018-12-27T14:58:24.257Z,95554.77
2018-12-27T15:00:55.953Z,95544.31
2018-12-27T15:03:26.780Z,95548.52
2018-12-27T15:05:57.082Z,95553.80
2018-12-27T15:08:28.207Z,95555.89
2018-12-27T15:10:58.480Z,95553.95
2018-12-27T15:13:29.393Z,95557.81
2018-12-27T15:15:59.790Z,95551.86
2018-12-27T15:18:30.135Z,95559.92
2018-12-27T15:21:00.871Z,95249.17
2018-12-27T15:23:31.822Z,95557.34
2018-12-27T15:26:02.344Z,95554.29
2018-12-27T15:28:32.858Z,95554.46
2018-12-27T15:31:03.645Z,95264.20
2018-12-27T15:33:34.237Z,95559.12
2018-12-27T15:36:04.549Z,95558.15
2018-12-27T15:38:35.707Z,95564.72
2018-12-27T15:41:06.171Z,95566.19
2018-12-27T15:43:37.064Z,95566.19
2018-12-27T15:46:07.383Z,95558.46
2018-12-27T15:48:38.025Z,95570.19
2018-12-27T15:51:08.587Z,95554.30
2018-12-27T15:53:39.406Z,95566.99
2018-12-27T15:56:09.706Z,95557.66
2018-12-27T15:58:40.775Z,95555.90
2018-12-27T16:01:11.058Z,95559.26
2018-12-27T16:03:41.713Z,95566.02
2018-12-27T16:06:12.378Z,95571.48
2018-12-27T16:08:43.084Z,95562.48
2018-12-27T16:11:13.471Z,95563.13
2018-12-27T16:13:44.083Z,95572.92
2018-12-27T16:16:14.425Z,95568.44
2018-12-27T16:18:45.083Z,95568.92
2018-12-27T16:21:15.389Z,95571.81
2018-12-27T16:23:45.995Z,95570.52
2018-12-27T16:26:16.540Z,95581.14
2018-12-27T16:28:47.617Z,95576.14
2018-12-27T16:31:18.019Z,95584.34
2018-12-27T16:33:48.677Z,95577.45
2018-12-27T16:36:19.365Z,95587.39
2018-12-27T16:38:49.652Z,95585.63
2018-12-27T16:41:20.468Z,95586.27
2018-12-27T16:43:50.864Z,95588.69
2018-12-27T16:46:21.406Z,95585.32
2018-12-27T16:48:51.867Z,95583.38
2018-12-27T16:51:22.682Z,95592.08
2018-12-27T16:53:53.169Z,95596.58
2018-12-27T16:56:24.233Z,95586.59
2018-12-27T16:58:55.595Z,95593.19
2018-12-27T17:01:26.582Z,95589.66
2018-12-27T17:03:57.239Z,95570.03
2018-12-27T17:06:27.559Z,95596.88
2018-12-27T17:08:58.007Z,95597.22
2018-12-27T17:11:28.932Z,95589.00
2018-12-27T17:13:59.200Z,95588.04
2018-12-27T17:16:29.660Z,95591.25
2018-12-27T17:19:00.056Z,95597.68
2018-12-27T17:21:30.778Z,95596.73
2018-12-27T17:24:01.397Z,95592.70
2018-12-27T17:26:31.704Z,95596.26
2018-12-27T17:29:02.518Z,95597.85
2018-12-27T17:31:33.235Z,95590.13
2018-12-27T17:34:03.573Z,95582.09
2018-12-27T17:36:35.324Z,95583.70
2018-12-27T17:39:08.167Z,95588.54
2018-12-27T17:41:38.438Z,95578.38
2018-12-27T17:44:09.066Z,95577.09
2018-12-27T17:46:39.779Z,95578.06
2018-12-27T17:49:10.354Z,95577.27
2018-12-27T17:51:41.177Z,95582.41
2018-12-27T17:54:11.548Z,95580.80
2018-12-27T17:56:41.835Z,95588.84
2018-12-27T17:59:12.504Z,95578.56
2018-12-27T18:01:42.797Z,95588.36
2018-12-27T18:04:13.211Z,95582.91
2018-12-27T18:06:43.976Z,95585.95
2018-12-27T18:09:14.454Z,95588.53
2018-12-27T18:11:45.111Z,95591.90
2018-12-27T18:14:15.528Z,95582.11
2018-12-27T18:16:46.259Z,95577.92
2018-12-27T18:19:16.579Z,95575.02
2018-12-27T18:21:47.513Z,95580.82
2018-12-27T18:24:18.194Z,95582.42
2018-12-27T18:26:48.615Z,95580.02
2018-12-27T18:29:19.409Z,95580.97
2018-12-27T18:31:50.195Z,95578.72
2018-12-27T18:34:20.513Z,95587.87
2018-12-27T18:36:50.799Z,95587.41
2018-12-27T18:39:21.762Z,95583.22
2018-12-27T18:41:52.160Z,95591.58
2018-12-27T18:44:22.558Z,95590.77
2018-12-27T18:46:52.970Z,95584.98
2018-12-27T18:49:23.760Z,95580.97
2018-12-27T18:51:54.057Z,95590.63
2018-12-27T18:54:24.746Z,95588.98
2018-12-27T18:56:55.113Z,95589.16
2018-12-27T18:59:26.010Z,95585.33
2018-12-27T19:01:56.293Z,95587.39
2018-12-27T19:04:26.636Z,95584.34
2018-12-27T19:06:57.285Z,95585.78
2018-12-27T19:09:27.821Z,95579.52
2018-12-27T19:12:33.610Z,95583.55
2018-12-27T19:15:08.313Z,95583.70
2018-12-27T19:17:53.683Z,95579.17
2018-12-27T19:20:24.323Z,95587.73
2018-12-27T19:23:06.865Z,95576.61
2018-12-27T19:25:37.667Z,95593.34
2018-12-27T19:28:07.980Z,95590.93
2018-12-27T19:30:38.935Z,95580.33
2018-12-27T19:33:09.414Z,95578.70
2018-12-27T19:35:40.231Z,95573.75
2018-12-27T19:38:10.622Z,95568.88
2018-12-27T19:40:41.199Z,95568.90
2018-12-27T19:43:11.781Z,95584.80
2018-12-27T19:45:42.812Z,95579.83
2018-12-27T19:48:13.090Z,95575.98
2018-12-27T19:50:43.808Z,95573.58
2018-12-27T19:53:14.327Z,95570.50
2018-12-27T19:55:44.698Z,95576.64
2018-12-27T19:58:14.983Z,95572.78
2018-12-27T20:00:45.864Z,95573.41
2018-12-27T20:03:17.581Z,95564.86
2018-12-27T20:05:48.359Z,95567.59
2018-12-27T20:08:18.665Z,95565.69
2018-12-27T20:10:49.191Z,95564.39
2018-12-27T20:13:19.814Z,95564.89
2018-12-27T20:15:50.542Z,95570.19
2018-12-27T20:18:20.874Z,95575.00
2018-12-27T20:20:51.725Z,95580.97
2018-12-27T20:23:22.082Z,95583.70
2018-12-27T20:25:52.754Z,95569.55
2018-12-27T20:28:23.372Z,95589.81
2018-12-27T20:30:54.260Z,95576.48
2018-12-27T20:33:24.576Z,95569.54
2018-12-27T20:35:55.535Z,95564.56
2018-12-27T20:38:25.909Z,95566.63
2018-12-27T20:40:56.221Z,95552.13
2018-12-27T20:43:26.604Z,95559.56
2018-12-27T20:45:59.525Z,95557.63
2018-12-27T20:48:29.864Z,95552.48
2018-12-27T20:51:00.429Z,95559.56
2018-12-27T20:53:31.093Z,95552.80
2018-12-27T20:56:01.393Z,95551.19
2018-12-27T20:58:31.771Z,95550.56
2018-12-27T21:01:02.553Z,95547.99
2018-12-27T21:03:32.846Z,95548.47
2018-12-27T21:06:03.529Z,95546.89
2018-12-27T21:08:33.847Z,95541.88
2018-12-27T21:11:04.398Z,95542.20
2018-12-27T21:13:35.092Z,95545.12
2018-12-27T21:16:05.483Z,95548.02
2018-12-27T21:18:35.874Z,95546.41
2018-12-27T21:21:06.604Z,95542.86
2018-12-27T21:23:36.895Z,95544.95
2018-12-27T21:26:07.237Z,95536.26
2018-12-27T21:28:37.968Z,95529.83
2018-12-27T21:31:08.499Z,95533.48
2018-12-27T21:33:39.749Z,95526.47
2018-12-27T21:36:10.399Z,95530.30
2018-12-27T21:38:40.724Z,95525.02
2018-12-27T21:41:11.446Z,95526.13
2018-12-27T21:43:41.791Z,95526.11
2018-12-27T21:46:12.119Z,95523.89
2018-12-27T21:48:42.866Z,95514.89
2018-12-27T21:51:13.439Z,95503.59
2018-12-27T21:53:43.755Z,95491.74
2018-12-27T21:56:14.461Z,95511.84
2018-12-27T21:58:45.057Z,95497.68
2018-12-27T22:01:15.430Z,95503.15
2018-12-27T22:03:45.932Z,95495.26
2018-12-27T22:06:16.345Z,95498.17
2018-12-27T22:08:46.697Z,95502.05
2018-12-27T22:11:17.264Z,95500.08
2018-12-27T22:13:47.560Z,95486.78
2018-12-27T22:16:18.263Z,95489.50
2018-12-27T22:18:49.044Z,95507.95
2018-12-27T22:21:19.385Z,95503.83
2018-12-27T22:23:50.255Z,95490.16
2018-12-27T22:26:21.103Z,95492.11
2018-12-27T22:28:51.500Z,95475.05
2018-12-27T22:31:21.951Z,95490.92
2018-12-27T22:33:52.552Z,95492.41
2018-12-27T22:36:22.861Z,95489.14
2018-12-27T22:38:53.177Z,95486.61
2018-12-27T22:41:23.874Z,95481.94
2018-12-27T22:43:54.204Z,95477.09
2018-12-27T22:46:25.619Z,95472.80
2018-12-27T22:48:56.074Z,95474.09
2018-12-27T22:51:26.634Z,95473.11
2018-12-27T22:53:56.955Z,95471.03
2018-12-27T22:56:27.658Z,95470.66
2018-12-27T22:58:58.379Z,95476.77
2018-12-27T23:01:28.786Z,95471.36
2018-12-27T23:03:59.678Z,95474.73
2018-12-27T23:06:30.087Z,95477.12
2018-12-27T23:09:00.380Z,95483.05
2018-12-27T23:11:32.486Z,95473.29
2018-12-27T23:14:02.917Z,95478.24
2018-12-27T23:16:33.634Z,95475.38
2018-12-27T23:19:04.324Z,95486.45
2018-12-27T23:21:34.733Z,95480.53
2018-12-27T23:24:05.383Z,95475.70
2018-12-27T23:26:35.923Z,95473.92
2018-12-27T23:29:06.338Z,95466.39
2018-12-27T23:31:36.785Z,95466.70
2018-12-27T23:34:07.548Z,95475.07
2018-12-27T23:36:37.891Z,95476.03
2018-12-27T23:39:08.665Z,95459.14
2018-12-27T23:41:39.450Z,95464.31
2018-12-27T23:44:10.698Z,95467.66
2018-12-27T23:46:41.414Z,95465.08
2018-12-27T23:49:11.895Z,95463.48
2018-12-27T23:51:42.478Z,95474.10
2018-12-27T23:54:13.202Z,95465.06
2018-12-27T23:56:43.649Z,95462.34
2018-12-27T23:59:13.983Z,95466.71
